createdAt,value
2017-05-31T00:02:19.196Z,74.10
2017-05-31T00:04:48.051Z,74.70
2017-05-31T00:07:16.905Z,75.00
2017-05-31T00:09:45.759Z,74.90
2017-05-31T00:12:14.604Z,75.00
2017-05-31T00:14:43.451Z,75.10
2017-05-31T00:17:12.307Z,75.30
2017-05-31T00:19:40.387Z,75.10
2017-05-31T00:22:09.235Z,75.50
2017-05-31T00:24:38.075Z,75.80
2017-05-31T00:27:06.960Z,75.90
2017-05-31T00:29:35.032Z,76.00
2017-05-31T00:32:03.915Z,77.20
2017-05-31T00:34:32.767Z,76.20
2017-05-31T00:37:01.607Z,76.00
2017-05-31T00:39:30.465Z,76.00
2017-05-31T00:41:58.543Z,76.00
2017-05-31T00:44:27.416Z,76.50
2017-05-31T00:46:56.266Z,76.30
2017-05-31T00:49:25.107Z,76.60
2017-05-31T00:51:53.955Z,76.90
2017-05-31T00:54:22.810Z,76.80
2017-05-31T00:56:50.894Z,76.80
2017-05-31T00:59:19.759Z,78.00
2017-05-31T01:01:48.611Z,77.80
2017-05-31T01:04:17.461Z,78.10
2017-05-31T01:06:46.297Z,78.20
2017-05-31T01:09:15.147Z,77.90
2017-05-31T01:11:43.995Z,78.10
2017-05-31T01:14:12.839Z,77.90
2017-05-31T01:16:41.692Z,78.10
2017-05-31T01:19:10.555Z,78.50
2017-05-31T01:21:39.395Z,78.40
2017-05-31T01:24:08.239Z,78.30
2017-05-31T01:26:37.091Z,78.30
2017-05-31T01:29:05.948Z,78.40
2017-05-31T01:31:34.805Z,78.90
2017-05-31T01:34:03.641Z,79.20
2017-05-31T01:36:32.521Z,79.50
2017-05-31T01:39:00.596Z,79.60
2017-05-31T01:41:29.540Z,79.20
2017-05-31T01:43:58.408Z,79.70
2017-05-31T01:46:27.252Z,79.80
2017-05-31T01:48:55.344Z,79.70
2017-05-31T01:51:24.199Z,79.30
2017-05-31T01:53:53.056Z,79.70
2017-05-31T01:56:21.908Z,80.00
2017-05-31T01:58:50.757Z,80.00
2017-05-31T02:01:19.603Z,80.30
2017-05-31T02:03:47.699Z,80.30
2017-05-31T02:06:16.555Z,80.30
2017-05-31T02:08:44.628Z,80.00
2017-05-31T02:11:13.487Z,80.40
2017-05-31T02:13:42.356Z,80.90
2017-05-31T02:16:11.200Z,80.80
2017-05-31T02:18:39.284Z,80.80
2017-05-31T02:21:08.132Z,81.30
2017-05-31T02:23:36.975Z,81.50
2017-05-31T02:26:05.839Z,81.60
2017-05-31T02:28:33.947Z,81.50
2017-05-31T02:31:02.797Z,81.50
2017-05-31T02:33:30.880Z,81.40
2017-05-31T02:35:59.727Z,82.10
2017-05-31T02:38:28.584Z,82.00
2017-05-31T02:40:56.683Z,82.00
2017-05-31T02:43:25.523Z,82.20
2017-05-31T02:45:54.388Z,81.80
2017-05-31T02:48:23.232Z,82.10
2017-05-31T02:50:52.071Z,82.30
2017-05-31T02:53:20.923Z,82.40
2017-05-31T02:55:49.781Z,82.60
2017-05-31T02:58:17.863Z,82.60
2017-05-31T03:00:46.722Z,82.40
2017-05-31T03:03:15.589Z,83.50
2017-05-31T03:05:44.451Z,82.90
2017-05-31T03:08:13.287Z,82.40
2017-05-31T03:10:42.139Z,82.80
2017-05-31T03:13:11.003Z,82.80
2017-05-31T03:15:39.843Z,83.00
2017-05-31T03:18:08.696Z,82.80
2017-05-31T03:20:37.567Z,83.40
2017-05-31T03:23:06.412Z,82.80
2017-05-31T03:25:35.259Z,82.60
2017-05-31T03:28:03.343Z,82.70
2017-05-31T03:30:32.188Z,82.20
2017-05-31T03:33:01.040Z,82.10
2017-05-31T03:35:29.892Z,82.10
2017-05-31T03:37:58.755Z,82.50
2017-05-31T03:40:27.596Z,82.60
2017-05-31T03:42:56.563Z,82.60
2017-05-31T03:45:25.419Z,82.70
2017-05-31T03:47:54.260Z,82.60
2017-05-31T03:50:23.120Z,83.20
2017-05-31T03:52:51.969Z,82.60
2017-05-31T03:55:20.839Z,83.10
2017-05-31T03:57:49.688Z,83.20
2017-05-31T04:00:18.600Z,82.90
2017-05-31T04:02:47.503Z,83.10
2017-05-31T04:05:16.371Z,89.00
2017-05-31T04:07:45.372Z,87.60
2017-05-31T04:10:14.223Z,87.20
2017-05-31T04:12:43.084Z,85.60
2017-05-31T04:15:11.948Z,84.90
2017-05-31T04:17:40.802Z,84.30
2017-05-31T04:20:09.664Z,84.20
2017-05-31T04:22:38.829Z,83.80
2017-05-31T04:25:07.704Z,84.30
2017-05-31T04:27:36.546Z,84.20
2017-05-31T04:30:05.415Z,84.00
2017-05-31T04:32:34.298Z,84.20
2017-05-31T04:35:03.150Z,83.60
2017-05-31T04:37:31.996Z,84.20
2017-05-31T04:40:00.840Z,83.80
2017-05-31T04:42:29.687Z,84.00
2017-05-31T04:44:58.543Z,84.00
2017-05-31T04:47:26.654Z,84.00
2017-05-31T04:49:56.406Z,83.40
2017-05-31T04:52:25.252Z,84.90
2017-05-31T04:54:54.108Z,83.80
2017-05-31T04:57:22.956Z,84.20
2017-05-31T04:59:52.179Z,84.60
2017-05-31T05:02:21.020Z,85.80
2017-05-31T05:04:49.954Z,85.80
2017-05-31T05:07:18.760Z,86.00
2017-05-31T05:09:46.839Z,86.00
2017-05-31T05:12:15.698Z,86.70
2017-05-31T05:14:44.546Z,85.90
2017-05-31T05:17:12.631Z,85.90
2017-05-31T05:19:41.623Z,85.00
2017-05-31T05:22:10.504Z,85.60
2017-05-31T05:24:39.352Z,86.20
2017-05-31T05:27:08.199Z,86.40
2017-05-31T05:29:37.051Z,86.40
2017-05-31T05:32:05.896Z,86.40
2017-05-31T05:34:34.747Z,86.30
2017-05-31T05:37:03.606Z,85.20
2017-05-31T05:39:32.455Z,86.20
2017-05-31T05:42:01.327Z,86.20
2017-05-31T05:44:30.171Z,85.60
2017-05-31T05:46:59.032Z,86.20
2017-05-31T05:49:27.879Z,85.80
2017-05-31T05:51:56.744Z,86.20
2017-05-31T05:54:25.603Z,86.00
2017-05-31T05:56:54.488Z,85.70
2017-05-31T05:59:23.344Z,72.90
2017-05-31T06:01:52.196Z,72.70
2017-05-31T06:04:21.061Z,71.70
2017-05-31T06:06:49.926Z,71.20
2017-05-31T06:09:18.019Z,71.00
2017-05-31T06:11:46.874Z,71.00
2017-05-31T06:14:15.755Z,71.20
2017-05-31T06:16:44.606Z,71.60
2017-05-31T06:19:13.453Z,71.20
2017-05-31T06:21:42.334Z,71.80
2017-05-31T06:24:11.176Z,72.20
2017-05-31T06:26:40.030Z,72.00
2017-05-31T06:29:08.878Z,72.00
2017-05-31T06:31:37.750Z,71.90
2017-05-31T06:34:06.604Z,72.10
2017-05-31T06:36:35.452Z,71.80
2017-05-31T06:39:04.308Z,71.10
2017-05-31T06:41:33.152Z,70.90
2017-05-31T06:44:02.007Z,71.00
2017-05-31T06:46:30.951Z,70.60
2017-05-31T06:48:59.815Z,69.90
2017-05-31T06:51:28.700Z,69.70
2017-05-31T06:53:57.544Z,68.80
2017-05-31T06:56:26.405Z,68.60
2017-05-31T06:58:54.503Z,68.70
2017-05-31T07:01:23.363Z,67.90
2017-05-31T07:03:52.216Z,68.40
2017-05-31T07:06:21.080Z,68.80
2017-05-31T07:08:49.937Z,67.90
2017-05-31T07:11:18.815Z,68.50
2017-05-31T07:13:47.683Z,69.40
2017-05-31T07:16:16.537Z,69.10
2017-05-31T07:18:45.392Z,68.50
2017-05-31T07:21:14.252Z,67.80
2017-05-31T07:23:43.116Z,67.60
2017-05-31T07:26:11.997Z,67.40
2017-05-31T07:28:40.880Z,67.10
2017-05-31T07:31:09.789Z,68.30
2017-05-31T07:33:38.657Z,67.00
2017-05-31T07:36:07.524Z,66.60
2017-05-31T07:38:36.372Z,66.10
2017-05-31T07:41:05.241Z,66.30
2017-05-31T07:43:33.332Z,66.30
2017-05-31T07:46:02.221Z,67.00
2017-05-31T07:48:31.081Z,67.00
2017-05-31T07:50:59.192Z,67.00
2017-05-31T07:53:28.054Z,67.20
2017-05-31T07:55:56.919Z,68.50
2017-05-31T07:58:25.796Z,69.10
2017-05-31T08:00:54.651Z,67.90
2017-05-31T08:03:23.515Z,67.40
2017-05-31T08:05:52.380Z,67.30
2017-05-31T08:08:21.232Z,67.20
2017-05-31T08:10:50.093Z,67.60
2017-05-31T08:13:18.953Z,66.90
2017-05-31T08:15:47.796Z,66.80
2017-05-31T08:18:15.884Z,66.80
2017-05-31T08:20:44.728Z,66.70
2017-05-31T08:23:12.824Z,66.70
2017-05-31T08:25:41.676Z,65.90
2017-05-31T08:28:10.563Z,66.10
2017-05-31T08:30:39.420Z,65.80
2017-05-31T08:33:08.273Z,65.30
2017-05-31T08:35:37.131Z,65.40
2017-05-31T08:38:05.987Z,65.30
2017-05-31T08:40:34.844Z,64.60
2017-05-31T08:43:03.691Z,64.80
2017-05-31T08:45:32.568Z,64.20
2017-05-31T08:48:01.412Z,64.20
2017-05-31T08:50:29.509Z,64.20
2017-05-31T08:52:58.378Z,64.10
2017-05-31T08:55:27.220Z,64.00
2017-05-31T08:57:56.076Z,63.10
2017-05-31T09:00:24.929Z,62.70
2017-05-31T09:02:53.814Z,61.40
2017-05-31T09:05:22.656Z,60.50
2017-05-31T09:07:51.503Z,60.50
2017-05-31T09:10:19.601Z,60.50
2017-05-31T09:12:48.448Z,61.30
2017-05-31T09:15:17.297Z,61.20
2017-05-31T09:17:46.144Z,61.40
2017-05-31T09:20:15.042Z,61.60
2017-05-31T09:22:43.910Z,60.10
2017-05-31T09:25:12.758Z,59.60
2017-05-31T09:27:41.708Z,59.20
2017-05-31T09:30:10.581Z,58.80
2017-05-31T09:32:39.436Z,59.60
2017-05-31T09:35:08.288Z,60.00
2017-05-31T09:37:37.172Z,60.00
2017-05-31T09:40:06.025Z,60.50
2017-05-31T09:42:34.872Z,59.70
2017-05-31T09:45:03.759Z,59.70
2017-05-31T09:47:31.831Z,59.70
2017-05-31T09:50:00.688Z,59.40
2017-05-31T09:52:29.621Z,58.40
2017-05-31T09:54:58.487Z,58.10
2017-05-31T09:57:27.343Z,58.10
2017-05-31T09:59:56.197Z,57.90
2017-05-31T10:02:24.283Z,57.80
2017-05-31T10:04:53.135Z,58.20
2017-05-31T10:07:21.975Z,58.60
2017-05-31T10:09:50.840Z,57.50
2017-05-31T10:12:19.700Z,57.50
2017-05-31T10:14:48.548Z,57.10
2017-05-31T10:17:17.392Z,57.30
2017-05-31T10:19:46.240Z,57.20
2017-05-31T10:22:15.084Z,56.90
2017-05-31T10:24:43.932Z,57.00
2017-05-31T10:27:12.773Z,56.00
2017-05-31T10:29:40.872Z,56.00
2017-05-31T10:32:09.728Z,55.50
2017-05-31T10:34:39.455Z,55.30
2017-05-31T10:37:08.328Z,55.50
2017-05-31T10:39:36.405Z,55.60
2017-05-31T10:42:05.260Z,55.10
2017-05-31T10:44:34.108Z,54.50
2017-05-31T10:47:02.956Z,54.50
2017-05-31T10:49:31.804Z,53.60
2017-05-31T10:52:00.657Z,53.20
2017-05-31T10:54:29.504Z,53.00
2017-05-31T10:56:58.355Z,53.40
2017-05-31T10:59:27.203Z,52.00
2017-05-31T11:01:56.047Z,52.60
2017-05-31T11:04:24.908Z,52.60
2017-05-31T11:06:52.984Z,52.60
2017-05-31T11:09:21.861Z,52.10
2017-05-31T11:11:50.695Z,51.60
2017-05-31T11:14:19.551Z,51.80
2017-05-31T11:16:48.401Z,51.30
2017-05-31T11:19:17.247Z,51.40
2017-05-31T11:21:45.335Z,51.40
2017-05-31T11:24:14.176Z,51.20
2017-05-31T11:26:43.024Z,50.80
2017-05-31T11:29:11.869Z,51.40
2017-05-31T11:31:39.972Z,51.40
2017-05-31T11:34:08.825Z,51.60
2017-05-31T11:36:37.659Z,50.20
2017-05-31T11:39:06.515Z,51.10
2017-05-31T11:41:35.364Z,51.00
2017-05-31T11:44:04.215Z,51.30
2017-05-31T11:46:33.065Z,51.10
2017-05-31T11:49:01.907Z,50.10
2017-05-31T11:51:30.755Z,49.70
2017-05-31T11:53:59.643Z,49.60
2017-05-31T11:56:28.533Z,49.80
2017-05-31T11:58:57.366Z,49.50
2017-05-31T12:01:26.220Z,49.20
2017-05-31T12:03:55.780Z,49.50
2017-05-31T12:06:24.807Z,48.20
2017-05-31T12:08:53.653Z,45.60
2017-05-31T12:11:22.508Z,45.60
2017-05-31T12:13:51.347Z,46.50
2017-05-31T12:16:20.224Z,47.10
2017-05-31T12:18:49.081Z,46.30
2017-05-31T12:21:17.155Z,46.20
2017-05-31T12:23:46.008Z,45.20
2017-05-31T12:26:14.848Z,45.70
2017-05-31T12:28:43.711Z,44.50
2017-05-31T12:31:12.550Z,44.90
2017-05-31T12:33:41.391Z,45.70
2017-05-31T12:36:10.236Z,44.60
2017-05-31T12:38:39.116Z,46.20
2017-05-31T12:41:07.191Z,46.20
2017-05-31T12:43:36.039Z,44.30
2017-05-31T12:46:04.917Z,45.60
2017-05-31T12:48:33.755Z,45.20
2017-05-31T12:51:02.608Z,44.60
2017-05-31T12:53:31.443Z,44.30
2017-05-31T12:56:00.292Z,45.20
2017-05-31T12:58:29.138Z,45.90
2017-05-31T13:00:58.010Z,46.10
2017-05-31T13:03:26.867Z,45.30
2017-05-31T13:05:55.704Z,45.30
2017-05-31T13:08:24.556Z,45.20
2017-05-31T13:10:52.654Z,45.20
2017-05-31T13:13:21.511Z,45.60
2017-05-31T13:15:50.347Z,45.00
2017-05-31T13:18:19.230Z,45.10
2017-05-31T13:20:48.076Z,44.10
2017-05-31T13:23:16.915Z,44.00
2017-05-31T13:25:45.780Z,44.30
2017-05-31T13:28:13.851Z,44.30
2017-05-31T13:30:42.712Z,44.90
2017-05-31T13:33:11.549Z,44.30
2017-05-31T13:35:40.400Z,44.60
2017-05-31T13:38:09.241Z,43.90
2017-05-31T13:40:38.128Z,44.50
2017-05-31T13:43:06.971Z,44.90
2017-05-31T13:45:35.812Z,44.10
2017-05-31T13:48:04.672Z,44.20
2017-05-31T13:50:32.747Z,43.50
2017-05-31T13:53:01.717Z,43.50
2017-05-31T13:55:30.561Z,43.30
2017-05-31T13:57:59.416Z,42.90
2017-05-31T14:00:27.497Z,42.90
2017-05-31T14:02:56.368Z,44.00
2017-05-31T14:05:25.220Z,43.90
2017-05-31T14:07:54.069Z,44.50
2017-05-31T14:10:22.925Z,44.70
2017-05-31T14:12:51.764Z,45.10
2017-05-31T14:15:20.619Z,44.50
2017-05-31T14:17:49.476Z,45.60
2017-05-31T14:20:18.324Z,46.20
2017-05-31T14:22:46.407Z,46.20
2017-05-31T14:25:15.269Z,45.60
2017-05-31T14:27:44.117Z,45.80
2017-05-31T14:30:12.997Z,46.90
2017-05-31T14:32:41.845Z,45.60
2017-05-31T14:35:10.713Z,45.70
2017-05-31T14:37:39.551Z,45.70
2017-05-31T14:40:09.588Z,45.70
2017-05-31T14:42:38.437Z,44.70
2017-05-31T14:45:07.275Z,45.70
2017-05-31T14:47:36.152Z,45.70
2017-05-31T14:50:04.990Z,45.60
2017-05-31T14:52:33.875Z,45.50
2017-05-31T14:55:02.724Z,45.40
2017-05-31T14:57:31.599Z,46.00
2017-05-31T15:00:00.440Z,44.70
2017-05-31T15:02:29.284Z,45.00
2017-05-31T15:04:58.152Z,45.40
2017-05-31T15:07:26.987Z,46.00
2017-05-31T15:09:55.849Z,45.60
2017-05-31T15:12:24.687Z,45.80
2017-05-31T15:14:53.539Z,45.30
2017-05-31T15:17:22.442Z,45.10
2017-05-31T15:19:51.410Z,44.40
2017-05-31T15:22:19.481Z,44.50
2017-05-31T15:24:48.337Z,44.70
2017-05-31T15:27:17.187Z,44.10
2017-05-31T15:29:46.031Z,44.60
2017-05-31T15:32:14.879Z,45.00
2017-05-31T15:34:43.723Z,44.80
2017-05-31T15:37:11.836Z,44.80
2017-05-31T15:39:40.676Z,44.40
2017-05-31T15:42:09.549Z,43.40
2017-05-31T15:44:38.392Z,43.20
2017-05-31T15:47:07.243Z,43.70
2017-05-31T15:49:36.083Z,43.20
2017-05-31T15:52:04.940Z,43.30
2017-05-31T15:54:33.787Z,44.00
2017-05-31T15:57:02.627Z,43.50
2017-05-31T15:59:31.475Z,44.20
2017-05-31T16:02:00.316Z,43.80
2017-05-31T16:04:29.251Z,44.00
2017-05-31T16:06:58.108Z,44.10
2017-05-31T16:09:27.147Z,43.80
2017-05-31T16:11:55.996Z,43.60
2017-05-31T16:14:24.847Z,43.50
2017-05-31T16:16:53.690Z,43.60
2017-05-31T16:19:22.533Z,43.50
2017-05-31T16:21:51.379Z,43.60
2017-05-31T16:24:20.231Z,44.30
2017-05-31T16:26:49.099Z,43.90
2017-05-31T16:29:17.939Z,43.20
2017-05-31T16:31:46.784Z,42.80
2017-05-31T16:34:15.732Z,42.80
2017-05-31T16:36:44.583Z,42.80
2017-05-31T16:39:12.671Z,42.80
2017-05-31T16:41:41.528Z,41.80
2017-05-31T16:44:10.475Z,41.80
2017-05-31T16:46:39.311Z,42.10
2017-05-31T16:49:08.220Z,42.00
2017-05-31T16:51:37.056Z,42.50
2017-05-31T16:54:05.912Z,42.30
2017-05-31T16:56:34.760Z,42.00
2017-05-31T16:59:03.600Z,42.10
2017-05-31T17:01:32.488Z,42.30
2017-05-31T17:04:01.343Z,42.00
2017-05-31T17:06:30.233Z,41.70
2017-05-31T17:08:59.499Z,41.30
2017-05-31T17:11:28.532Z,41.20
2017-05-31T17:13:57.734Z,40.80
2017-05-31T17:16:26.600Z,41.40
2017-05-31T17:18:55.479Z,41.80
2017-05-31T17:21:24.400Z,41.20
2017-05-31T17:23:53.243Z,41.00
2017-05-31T17:26:22.094Z,41.00
2017-05-31T17:31:26.240Z,40.90
2017-05-31T17:33:55.096Z,40.60
2017-05-31T17:36:23.936Z,41.10
2017-05-31T17:38:52.811Z,41.10
2017-05-31T17:41:21.652Z,41.60
2017-05-31T17:43:50.516Z,41.40
2017-05-31T17:46:19.428Z,41.40
2017-05-31T17:48:48.329Z,42.10
2017-05-31T17:51:17.245Z,41.80
2017-05-31T17:53:46.092Z,41.40
2017-05-31T17:56:14.968Z,41.50
2017-05-31T17:58:43.036Z,41.50
2017-05-31T18:01:11.921Z,41.70
2017-05-31T18:03:40.792Z,42.00
2017-05-31T18:06:09.645Z,41.20
2017-05-31T18:08:38.512Z,41.00
2017-05-31T18:11:07.490Z,41.10
2017-05-31T18:13:36.352Z,40.60
2017-05-31T18:16:05.236Z,41.00
2017-05-31T18:18:34.085Z,41.30
2017-05-31T18:21:02.929Z,40.90
2017-05-31T18:23:31.808Z,41.20
2017-05-31T18:26:00.652Z,41.10
2017-05-31T18:28:29.492Z,41.40
2017-05-31T18:30:58.339Z,42.00
2017-05-31T18:33:27.208Z,41.60
2017-05-31T18:35:56.060Z,41.80
2017-05-31T18:38:24.912Z,41.30
2017-05-31T18:40:53.784Z,41.00
2017-05-31T18:43:21.855Z,41.00
2017-05-31T18:45:50.704Z,41.70
2017-05-31T18:48:19.543Z,41.50
2017-05-31T18:50:48.396Z,42.20
2017-05-31T18:53:17.240Z,41.50
2017-05-31T18:55:46.092Z,41.60
2017-05-31T18:58:14.939Z,41.80
2017-05-31T19:00:43.808Z,42.00
2017-05-31T19:03:12.659Z,42.60
2017-05-31T19:05:41.508Z,42.20
2017-05-31T19:08:10.394Z,42.80
2017-05-31T19:10:39.232Z,42.90
2017-05-31T19:13:08.104Z,43.10
2017-05-31T19:15:36.952Z,43.00
2017-05-31T19:18:05.797Z,43.40
2017-05-31T19:20:33.877Z,43.30
2017-05-31T19:23:02.765Z,43.20
2017-05-31T19:25:31.588Z,43.20
2017-05-31T19:28:00.427Z,44.30
2017-05-31T19:30:29.277Z,43.80
2017-05-31T19:32:58.111Z,44.40
2017-05-31T19:35:26.979Z,44.10
2017-05-31T19:37:55.832Z,44.20
2017-05-31T19:40:23.921Z,44.20
2017-05-31T19:42:52.771Z,45.10
2017-05-31T19:45:21.611Z,45.80
2017-05-31T19:47:50.461Z,46.60
2017-05-31T19:50:19.295Z,47.00
2017-05-31T19:52:48.147Z,47.40
2017-05-31T19:55:16.992Z,47.70
2017-05-31T19:57:45.852Z,47.90
2017-05-31T20:00:14.852Z,48.20
2017-05-31T20:02:43.690Z,48.50
2017-05-31T20:05:12.579Z,48.80
2017-05-31T20:07:41.428Z,49.20
2017-05-31T20:10:10.276Z,49.50
2017-05-31T20:12:38.356Z,49.40
2017-05-31T20:15:07.225Z,50.30
2017-05-31T20:17:36.067Z,51.20
2017-05-31T20:20:04.908Z,50.90
2017-05-31T20:22:33.768Z,51.10
2017-05-31T20:25:02.630Z,50.80
2017-05-31T20:27:31.471Z,51.00
2017-05-31T20:30:00.307Z,51.10
2017-05-31T20:32:29.180Z,51.30
2017-05-31T20:34:58.015Z,51.60
2017-05-31T20:37:26.863Z,51.90
2017-05-31T20:39:55.715Z,52.10
2017-05-31T20:42:24.556Z,52.10
2017-05-31T20:44:53.403Z,52.30
2017-05-31T20:47:22.244Z,52.60
2017-05-31T20:49:51.105Z,52.80
2017-05-31T20:52:19.943Z,52.60
2017-05-31T20:54:48.816Z,52.80
2017-05-31T20:57:17.664Z,53.10
2017-05-31T20:59:46.508Z,53.40
2017-05-31T21:02:15.360Z,53.80
2017-05-31T21:04:44.199Z,54.00
2017-05-31T21:07:13.052Z,54.30
2017-05-31T21:09:41.899Z,54.40
2017-05-31T21:12:10.775Z,54.70
2017-05-31T21:14:39.612Z,54.80
2017-05-31T21:17:07.688Z,54.80
2017-05-31T21:19:36.687Z,55.10
2017-05-31T21:22:05.524Z,54.80
2017-05-31T21:24:34.381Z,55.10
2017-05-31T21:27:03.227Z,55.40
2017-05-31T21:29:32.067Z,55.50
2017-05-31T21:32:01.012Z,55.70
2017-05-31T21:34:29.860Z,55.90
2017-05-31T21:36:58.708Z,56.60
2017-05-31T21:39:26.805Z,56.50
2017-05-31T21:41:55.655Z,56.90
2017-05-31T21:44:24.496Z,57.10
2017-05-31T21:46:53.344Z,57.00
2017-05-31T21:49:22.188Z,57.20
2017-05-31T21:51:51.051Z,57.50
2017-05-31T21:54:19.887Z,57.80
2017-05-31T21:56:48.740Z,57.90
2017-05-31T21:59:17.584Z,58.40
2017-05-31T22:01:46.450Z,58.70
2017-05-31T22:04:15.294Z,58.90
2017-05-31T22:06:43.359Z,58.90
2017-05-31T22:09:12.204Z,59.50
2017-05-31T22:11:41.121Z,60.00
2017-05-31T22:14:09.971Z,60.40
2017-05-31T22:16:38.864Z,60.40
2017-05-31T22:19:07.731Z,60.20
2017-05-31T22:21:36.561Z,60.30
2017-05-31T22:24:05.427Z,60.60
2017-05-31T22:26:34.296Z,60.70
2017-05-31T22:29:03.131Z,61.20
2017-05-31T22:31:31.987Z,61.30
2017-05-31T22:36:36.000Z,62.00
2017-05-31T22:39:04.091Z,61.90
2017-05-31T22:41:32.949Z,63.50
2017-05-31T22:44:01.789Z,62.80
2017-05-31T22:46:30.660Z,62.60
2017-05-31T22:48:59.506Z,63.30
2017-05-31T22:51:28.339Z,64.10
2017-05-31T22:54:08.065Z,63.50
2017-05-31T22:56:36.904Z,63.20
2017-05-31T22:59:05.819Z,63.60
2017-05-31T23:01:34.669Z,63.20
2017-05-31T23:04:02.750Z,63.00
2017-05-31T23:06:31.600Z,64.00
2017-05-31T23:08:59.705Z,63.80
2017-05-31T23:11:28.543Z,64.20
2017-05-31T23:13:58.191Z,64.90
2017-05-31T23:16:27.058Z,64.80
2017-05-31T23:18:55.888Z,65.80
2017-05-31T23:21:24.804Z,65.50
2017-05-31T23:23:53.649Z,65.80
2017-05-31T23:26:22.508Z,65.70
2017-05-31T23:28:51.349Z,65.30
2017-05-31T23:31:20.217Z,66.00
2017-05-31T23:33:49.060Z,65.60
2017-05-31T23:36:17.912Z,66.10
2017-05-31T23:38:45.993Z,66.10
2017-05-31T23:41:14.839Z,65.60
2017-05-31T23:43:43.683Z,65.70
2017-05-31T23:46:12.523Z,66.50
2017-05-31T23:48:41.367Z,67.20
2017-05-31T23:51:10.213Z,67.80
2017-05-31T23:53:38.308Z,67.80
2017-05-31T23:56:07.150Z,67.70
2017-05-31T23:58:35.988Z,67.90
